Time;durP1;ratioP1;P1;durP2;ratioP2;P2;SDS_P1;SDS_P2;PMS_P1;PMS_P2;Temp;Humidity;BMP_temperature;BMP_pressure;BME280_temperature;BME280_humidity;BME280_pressure;Samples;Min_cycle;Max_cycle;Signal;HPM_P1;HPM_P2
2021/03/18 00:02:23;;;;;;;19.60;14.57;;;;;;;;;;4961722;28;20173;-86
2021/03/18 00:05:04;;;;;;;21.63;13.53;;;;;;;;;;4975036;28;20183;-86
2021/03/18 00:07:30;;;;;;;18.50;12.93;;;;;;;;;;4968740;28;20194;-87
2021/03/18 00:09:57;;;;;;;18.50;12.73;;;;;;;;;;4969928;28;20637;-86
2021/03/18 00:12:36;;;;;;;20.57;13.10;;;;;;;;;;4973373;28;20736;-86
2021/03/18 00:15:10;;;;;;;21.67;13.33;;;;;;;;;;4974686;28;20171;-86
2021/03/18 00:17:40;;;;;;;19.30;12.83;;;;;;;;;;4942039;29;20577;-86
2021/03/18 00:20:14;;;;;;;19.70;13.23;;;;;;;;;;4955348;28;20642;-85
2021/03/18 00:22:44;;;;;;;20.37;12.13;;;;;;;;;;4956110;29;20163;-86
2021/03/18 00:25:19;;;;;;;23.53;14.13;;;;;;;;;;4955743;28;20254;-86
2021/03/18 00:27:49;;;;;;;18.40;11.00;;;;;;;;;;4975490;28;20169;-86
2021/03/18 00:30:19;;;;;;;21.33;11.53;;;;;;;;;;4974968;28;20158;-86
2021/03/18 00:32:44;;;;;;;18.57;12.20;;;;;;;;;;4957493;28;20186;-85
2021/03/18 00:35:28;;;;;;;20.43;12.53;;;;;;;;;;4957987;28;20174;-86
2021/03/18 00:37:54;;;;;;;19.03;12.73;;;;;;;;;;4955622;29;20159;-86
2021/03/18 00:40:25;;;;;;;18.40;12.53;;;;;;;;;;4967525;28;20543;-86
2021/03/18 00:43:03;;;;;;;19.13;12.50;;;;;;;;;;4974161;28;20253;-86
2021/03/18 00:45:30;;;;;;;17.43;11.23;;;;;;;;;;4974950;28;20648;-86
2021/03/18 00:47:59;;;;;;;15.63;10.50;;;;;;;;;;4974414;28;20182;-86
2021/03/18 00:50:24;;;;;;;16.03;10.67;;;;;;;;;;4974541;28;20198;-87
2021/03/18 00:52:50;;;;;;;16.90;10.77;;;;;;;;;;4973231;28;20181;-86
2021/03/18 00:55:15;;;;;;;15.50;9.77;;;;;;;;;;4955663;28;20172;-86
2021/03/18 00:57:41;;;;;;;17.20;10.23;;;;;;;;;;4937795;28;20242;-86
2021/03/18 01:00:14;;;;;;;16.60;11.00;;;;;;;;;;4956969;28;20187;-86
2021/03/18 01:02:46;;;;;;;17.43;10.47;;;;;;;;;;4941881;29;20580;-85
2021/03/18 01:05:12;;;;;;;16.27;10.63;;;;;;;;;;4958582;29;20194;-86
2021/03/18 01:07:38;;;;;;;16.20;10.43;;;;;;;;;;4957530;28;20183;-86
2021/03/18 01:10:06;;;;;;;18.40;11.70;;;;;;;;;;4977573;28;20692;-86
2021/03/18 01:12:31;;;;;;;20.87;12.87;;;;;;;;;;4977887;28;20333;-85
2021/03/18 01:14:56;;;;;;;17.37;10.57;;;;;;;;;;4977767;28;20536;-85
2021/03/18 01:17:21;;;;;;;16.30;10.70;;;;;;;;;;4977730;28;20175;-86
2021/03/18 01:19:47;;;;;;;15.00;9.93;;;;;;;;;;4962224;28;20257;-86
2021/03/18 01:22:12;;;;;;;13.93;10.10;;;;;;;;;;4958694;29;20568;-85
2021/03/18 01:24:37;;;;;;;15.43;10.07;;;;;;;;;;4958714;28;20198;-86
2021/03/18 01:27:02;;;;;;;15.83;10.00;;;;;;;;;;4961494;28;20175;-85
2021/03/18 01:29:30;;;;;;;14.73;9.90;;;;;;;;;;4978086;28;20610;-85
2021/03/18 01:31:56;;;;;;;18.97;11.53;;;;;;;;;;4977324;28;20696;-86
2021/03/18 01:34:22;;;;;;;19.57;12.10;;;;;;;;;;4960340;28;20265;-85
2021/03/18 01:36:47;;;;;;;17.67;12.07;;;;;;;;;;4984000;28;20169;-85
2021/03/18 01:39:12;;;;;;;16.03;10.67;;;;;;;;;;4977405;28;20556;-86
2021/03/18 01:41:38;;;;;;;15.90;10.87;;;;;;;;;;4977666;28;20221;-86
2021/03/18 01:44:04;;;;;;;15.30;10.70;;;;;;;;;;4977936;28;20179;-86
2021/03/18 01:46:29;;;;;;;17.70;12.27;;;;;;;;;;4968317;28;20190;-86
2021/03/18 01:48:54;;;;;;;19.30;12.00;;;;;;;;;;4958144;28;20500;-85
2021/03/18 01:51:20;;;;;;;16.80;11.67;;;;;;;;;;4958043;29;20646;-85
2021/03/18 01:53:46;;;;;;;16.83;11.10;;;;;;;;;;4958044;28;20179;-86
2021/03/18 01:56:12;;;;;;;18.07;12.10;;;;;;;;;;4976890;28;20193;-86
2021/03/18 01:58:40;;;;;;;16.07;11.07;;;;;;;;;;4977089;28;20234;-85
2021/03/18 02:01:07;;;;;;;18.30;11.43;;;;;;;;;;4977268;28;20183;-86
2021/03/18 02:03:33;;;;;;;17.27;10.80;;;;;;;;;;4975322;28;20174;-85
2021/03/18 02:05:58;;;;;;;15.33;10.53;;;;;;;;;;4953329;28;20245;-84
2021/03/18 02:08:24;;;;;;;18.83;10.47;;;;;;;;;;4942942;29;20184;-85
2021/03/18 02:10:51;;;;;;;15.10;9.83;;;;;;;;;;4957162;28;20203;-85
2021/03/18 02:13:17;;;;;;;17.20;10.97;;;;;;;;;;4976656;28;20175;-86
2021/03/18 02:15:45;;;;;;;15.23;10.33;;;;;;;;;;4976710;28;20250;-86
2021/03/18 02:18:13;;;;;;;17.77;10.40;;;;;;;;;;4976611;28;20576;-85
2021/03/18 02:20:41;;;;;;;16.73;10.53;;;;;;;;;;4962070;28;20175;-86
2021/03/18 02:23:17;;;;;;;13.53;10.40;;;;;;;;;;4957698;29;20231;-87
2021/03/18 02:25:47;;;;;;;18.20;11.20;;;;;;;;;;4957254;29;20167;-86
2021/03/18 02:28:12;;;;;;;15.53;10.70;;;;;;;;;;4959733;28;20214;-86
2021/03/18 02:30:56;;;;;;;18.00;11.43;;;;;;;;;;4968383;28;20297;-86
2021/03/18 02:33:40;;;;;;;15.00;10.53;;;;;;;;;;4959816;28;20230;-85
2021/03/18 02:36:12;;;;;;;13.63;9.67;;;;;;;;;;4959867;28;20194;-86
2021/03/18 02:38:37;;;;;;;15.40;9.73;;;;;;;;;;4976508;28;20617;-85
2021/03/18 02:41:07;;;;;;;14.90;9.17;;;;;;;;;;4976155;28;20267;-85
2021/03/18 02:43:36;;;;;;;17.43;9.53;;;;;;;;;;4957985;28;20182;-86
2021/03/18 02:46:02;;;;;;;17.27;9.90;;;;;;;;;;4956820;28;20189;-85
2021/03/18 02:48:35;;;;;;;14.17;9.37;;;;;;;;;;4939862;29;20270;-86
2021/03/18 02:51:02;;;;;;;15.00;9.70;;;;;;;;;;4970147;28;20605;-85
2021/03/18 02:53:27;;;;;;;14.27;9.63;;;;;;;;;;4963738;28;20190;-85
2021/03/18 02:55:54;;;;;;;15.67;9.83;;;;;;;;;;4957100;29;20168;-86
2021/03/18 02:58:21;;;;;;;14.43;9.43;;;;;;;;;;4959997;28;20222;-85
2021/03/18 03:00:47;;;;;;;15.77;10.37;;;;;;;;;;4975877;28;20190;-85
2021/03/18 03:03:13;;;;;;;18.33;9.87;;;;;;;;;;4975776;28;20676;-85
2021/03/18 03:05:39;;;;;;;14.07;9.40;;;;;;;;;;4972889;28;20171;-85
2021/03/18 03:08:07;;;;;;;15.63;9.53;;;;;;;;;;4956455;28;20186;-85
2021/03/18 03:10:33;;;;;;;16.73;10.07;;;;;;;;;;4956590;29;20337;-85
2021/03/18 03:12:59;;;;;;;14.40;9.37;;;;;;;;;;4956421;29;20238;-85
2021/03/18 03:15:28;;;;;;;17.40;10.40;;;;;;;;;;4967433;28;20201;-85
2021/03/18 03:17:55;;;;;;;14.47;10.03;;;;;;;;;;4975836;28;20688;-85
2021/03/18 03:20:21;;;;;;;16.60;9.87;;;;;;;;;;4976306;28;20170;-85
2021/03/18 03:22:46;;;;;;;16.20;10.07;;;;;;;;;;4975414;28;20178;-86
2021/03/18 03:25:13;;;;;;;19.03;10.73;;;;;;;;;;4961660;28;20178;-85
2021/03/18 03:27:39;;;;;;;15.10;10.50;;;;;;;;;;4956358;28;20254;-85
2021/03/18 03:30:05;;;;;;;18.00;10.60;;;;;;;;;;4956407;29;20174;-85
2021/03/18 03:32:31;;;;;;;17.73;10.67;;;;;;;;;;4963688;28;20306;-85
2021/03/18 03:34:56;;;;;;;16.40;11.27;;;;;;;;;;4975796;28;20206;-86
2021/03/18 03:37:22;;;;;;;14.67;9.60;;;;;;;;;;4975312;28;20174;-85
2021/03/18 03:39:47;;;;;;;14.90;9.53;;;;;;;;;;4968607;28;20495;-86
2021/03/18 03:42:13;;;;;;;17.60;9.87;;;;;;;;;;4956077;29;20182;-85
2021/03/18 03:44:39;;;;;;;16.83;10.30;;;;;;;;;;4956149;28;20641;-86
2021/03/18 03:47:05;;;;;;;13.87;9.60;;;;;;;;;;4969405;28;20182;-87
2021/03/18 03:49:30;;;;;;;15.43;9.57;;;;;;;;;;4975453;28;20174;-86
2021/03/18 03:52:14;;;;;;;15.73;10.20;;;;;;;;;;4957976;28;20209;-87
2021/03/18 03:54:45;;;;;;;13.73;9.77;;;;;;;;;;4958094;28;20175;-87
2021/03/18 03:57:21;;;;;;;15.77;9.87;;;;;;;;;;4955630;28;20199;-87
2021/03/18 03:59:47;;;;;;;17.50;10.47;;;;;;;;;;4958462;28;20222;-86
2021/03/18 04:02:13;;;;;;;18.40;11.70;;;;;;;;;;4975084;28;20184;-87
2021/03/18 04:04:44;;;;;;;20.53;11.57;;;;;;;;;;4974827;28;20617;-86
2021/03/18 04:07:11;;;;;;;16.63;11.03;;;;;;;;;;4973392;28;20253;-86
2021/03/18 04:09:38;;;;;;;19.03;10.90;;;;;;;;;;4955415;28;20626;-87
2021/03/18 04:12:04;;;;;;;16.60;10.53;;;;;;;;;;4955600;28;20234;-87
2021/03/18 04:14:32;;;;;;;15.43;9.73;;;;;;;;;;4955638;29;20171;-87
2021/03/18 04:16:59;;;;;;;17.27;10.33;;;;;;;;;;4971523;28;20182;-87
2021/03/18 04:19:25;;;;;;;19.57;10.70;;;;;;;;;;4974651;28;20647;-86
2021/03/18 04:21:51;;;;;;;18.27;10.47;;;;;;;;;;4974631;28;20178;-87
2021/03/18 04:24:18;;;;;;;16.17;10.00;;;;;;;;;;4961520;28;20185;-87
2021/03/18 04:26:44;;;;;;;16.67;10.63;;;;;;;;;;4955784;28;20278;-86
2021/03/18 04:29:10;;;;;;;20.67;11.07;;;;;;;;;;4955299;29;20171;-86
2021/03/18 04:31:36;;;;;;;15.60;10.40;;;;;;;;;;4964157;28;20245;-87
2021/03/18 04:34:02;;;;;;;17.40;10.23;;;;;;;;;;4976030;28;20213;-86
2021/03/18 04:36:28;;;;;;;19.30;10.47;;;;;;;;;;4979120;28;20573;-86
2021/03/18 04:38:54;;;;;;;16.53;10.40;;;;;;;;;;4975133;28;20633;-87
2021/03/18 04:41:20;;;;;;;18.90;11.97;;;;;;;;;;4959027;28;20693;-86
2021/03/18 04:43:45;;;;;;;19.60;12.20;;;;;;;;;;4961411;28;20171;-86
2021/03/18 04:46:11;;;;;;;19.60;11.57;;;;;;;;;;4978610;28;20181;-86
2021/03/18 04:48:38;;;;;;;20.33;11.90;;;;;;;;;;4978284;28;20170;-86
2021/03/18 04:51:05;;;;;;;19.20;11.60;;;;;;;;;;4978494;28;20207;-88
2021/03/18 04:53:31;;;;;;;17.80;10.87;;;;;;;;;;4953425;28;20270;-88
2021/03/18 04:55:56;;;;;;;14.77;10.17;;;;;;;;;;4959279;29;20316;-88
2021/03/18 04:58:22;;;;;;;19.83;10.97;;;;;;;;;;4958979;28;20231;-88
2021/03/18 05:00:47;;;;;;;16.73;10.70;;;;;;;;;;4959120;29;20177;-88
2021/03/18 05:03:14;;;;;;;19.53;10.87;;;;;;;;;;4972984;28;20183;-88
2021/03/18 05:05:39;;;;;;;17.40;10.63;;;;;;;;;;4978483;28;20680;-87
2021/03/18 05:08:05;;;;;;;20.00;12.20;;;;;;;;;;4977985;28;20175;-88
2021/03/18 05:10:32;;;;;;;17.80;10.90;;;;;;;;;;4977597;28;20487;-87
2021/03/18 05:12:58;;;;;;;20.40;11.47;;;;;;;;;;4941414;29;20618;-87
2021/03/18 05:15:25;;;;;;;18.43;10.73;;;;;;;;;;4958781;28;20171;-87
2021/03/18 05:17:51;;;;;;;18.13;10.37;;;;;;;;;;4958926;29;20541;-86
2021/03/18 05:20:18;;;;;;;18.40;10.57;;;;;;;;;;4958971;28;20168;-86
2021/03/18 05:22:47;;;;;;;15.57;9.67;;;;;;;;;;4976244;28;20544;-86
2021/03/18 05:25:13;;;;;;;17.93;9.83;;;;;;;;;;4977995;28;20170;-86
2021/03/18 05:27:39;;;;;;;16.00;10.13;;;;;;;;;;4978032;28;20182;-86
2021/03/18 05:30:05;;;;;;;19.83;11.00;;;;;;;;;;4961784;28;20183;-86
2021/03/18 05:32:31;;;;;;;20.33;11.50;;;;;;;;;;4958395;28;20206;-86
2021/03/18 05:34:56;;;;;;;20.93;11.57;;;;;;;;;;4958929;29;20508;-86
2021/03/18 05:37:21;;;;;;;23.77;12.17;;;;;;;;;;4941162;29;20522;-86
2021/03/18 05:39:47;;;;;;;21.23;12.57;;;;;;;;;;4971927;28;20221;-86
2021/03/18 05:42:12;;;;;;;21.57;12.10;;;;;;;;;;4977561;28;20174;-85
2021/03/18 05:44:37;;;;;;;15.37;10.43;;;;;;;;;;4977218;28;20225;-86
2021/03/18 05:47:03;;;;;;;19.90;11.50;;;;;;;;;;4964651;28;20707;-86
2021/03/18 05:49:29;;;;;;;14.63;10.70;;;;;;;;;;4958436;29;20258;-87
2021/03/18 05:51:54;;;;;;;17.73;11.47;;;;;;;;;;4958118;29;20209;-87
2021/03/18 05:54:20;;;;;;;18.03;12.70;;;;;;;;;;4957937;29;20172;-87
2021/03/18 05:56:47;;;;;;;18.53;12.53;;;;;;;;;;4957312;28;20270;-87
2021/03/18 05:59:12;;;;;;;21.47;12.23;;;;;;;;;;4976617;28;20226;-86
2021/03/18 06:01:39;;;;;;;16.13;11.17;;;;;;;;;;4977304;28;20174;-87
2021/03/18 06:04:05;;;;;;;18.17;10.93;;;;;;;;;;4961341;28;20182;-86
2021/03/18 06:06:30;;;;;;;16.87;10.67;;;;;;;;;;4957897;28;20175;-87
2021/03/18 06:08:55;;;;;;;16.97;11.13;;;;;;;;;;4957951;28;20218;-86
2021/03/18 06:11:21;;;;;;;16.63;10.50;;;;;;;;;;4940744;29;20215;-87
2021/03/18 06:13:46;;;;;;;20.47;12.50;;;;;;;;;;4974676;28;20625;-86
2021/03/18 06:16:11;;;;;;;16.30;11.63;;;;;;;;;;4959794;28;20179;-87
2021/03/18 06:18:37;;;;;;;15.43;11.10;;;;;;;;;;4959742;28;20178;-86
2021/03/18 06:21:06;;;;;;;16.33;10.77;;;;;;;;;;4948125;28;20681;-86
2021/03/18 06:23:32;;;;;;;15.80;11.20;;;;;;;;;;4957654;28;20186;-86
2021/03/18 06:25:58;;;;;;;17.30;11.73;;;;;;;;;;4940421;29;20640;-86
2021/03/18 06:28:26;;;;;;;17.93;11.97;;;;;;;;;;4959348;28;20277;-86
2021/03/18 06:31:04;;;;;;;18.17;12.40;;;;;;;;;;4976817;28;20210;-86
2021/03/18 06:33:46;;;;;;;20.60;13.20;;;;;;;;;;4976591;28;20198;-86
2021/03/18 06:36:22;;;;;;;17.57;11.60;;;;;;;;;;4959488;28;20190;-86
2021/03/18 06:38:57;;;;;;;16.70;11.80;;;;;;;;;;4957111;28;20207;-87
2021/03/18 06:41:36;;;;;;;17.67;10.90;;;;;;;;;;4957408;28;20545;-86
2021/03/18 06:44:02;;;;;;;15.60;11.30;;;;;;;;;;4940527;29;20179;-86
2021/03/18 06:46:28;;;;;;;17.23;11.33;;;;;;;;;;4971664;28;20606;-87
2021/03/18 06:48:53;;;;;;;18.27;12.17;;;;;;;;;;4976355;28;20232;-86
2021/03/18 06:51:23;;;;;;;19.63;12.30;;;;;;;;;;4976104;28;20206;-87
2021/03/18 06:53:48;;;;;;;17.33;12.30;;;;;;;;;;4967875;28;20649;-87
2021/03/18 06:56:32;;;;;;;16.23;12.13;;;;;;;;;;4958416;28;20182;-86
2021/03/18 06:58:58;;;;;;;18.33;12.30;;;;;;;;;;4958216;28;20238;-87
2021/03/18 07:01:25;;;;;;;27.20;17.57;;;;;;;;;;4976000;28;20182;-87
2021/03/18 07:03:50;;;;;;;23.37;15.93;;;;;;;;;;4976140;28;20182;-87
2021/03/18 07:06:29;;;;;;;19.50;13.50;;;;;;;;;;4976003;28;20178;-87
2021/03/18 07:09:13;;;;;;;18.97;13.77;;;;;;;;;;4968301;28;20195;-87
2021/03/18 07:11:45;;;;;;;21.30;13.00;;;;;;;;;;4974203;28;20212;-87
2021/03/18 07:14:10;;;;;;;21.47;13.90;;;;;;;;;;4957131;28;20170;-87
2021/03/18 07:16:43;;;;;;;19.93;13.47;;;;;;;;;;4974898;28;20170;-87
2021/03/18 07:19:08;;;;;;;17.97;12.43;;;;;;;;;;4970850;28;20179;-87
2021/03/18 07:21:35;;;;;;;22.97;15.93;;;;;;;;;;4975449;28;20189;-86
2021/03/18 07:24:00;;;;;;;34.03;22.17;;;;;;;;;;4975773;28;20201;-86
2021/03/18 07:26:25;;;;;;;60.83;34.93;;;;;;;;;;4975653;28;20178;-86
2021/03/18 07:28:52;;;;;;;35.63;24.97;;;;;;;;;;4975430;28;20185;-86
2021/03/18 07:31:19;;;;;;;60.27;41.63;;;;;;;;;;4975608;28;20226;-86
2021/03/18 07:33:44;;;;;;;22.70;16.07;;;;;;;;;;4945637;29;20262;-86
2021/03/18 07:36:11;;;;;;;40.93;24.60;;;;;;;;;;4955835;29;20318;-85
2021/03/18 07:38:37;;;;;;;32.73;22.07;;;;;;;;;;4958146;28;20654;-85
2021/03/18 07:41:02;;;;;;;30.47;20.40;;;;;;;;;;4975314;28;20225;-86
2021/03/18 07:43:28;;;;;;;43.70;25.13;;;;;;;;;;4975430;28;20171;-85
2021/03/18 07:45:55;;;;;;;44.43;23.77;;;;;;;;;;4974462;28;20181;-87
2021/03/18 07:48:21;;;;;;;31.37;19.80;;;;;;;;;;4971745;28;20179;-86
2021/03/18 07:50:47;;;;;;;33.17;17.50;;;;;;;;;;4974886;28;20202;-87
2021/03/18 07:53:14;;;;;;;39.07;21.40;;;;;;;;;;4968883;28;20190;-87
2021/03/18 07:55:41;;;;;;;27.63;18.50;;;;;;;;;;4941052;28;20568;-89
2021/03/18 07:58:07;;;;;;;25.77;17.60;;;;;;;;;;4940274;29;20651;-88
2021/03/18 08:00:33;;;;;;;35.13;20.83;;;;;;;;;;4949363;28;20306;-87
2021/03/18 08:03:16;;;;;;;27.47;16.20;;;;;;;;;;4975177;28;20197;-87
2021/03/18 08:05:42;;;;;;;22.03;14.43;;;;;;;;;;4943082;29;20187;-87
2021/03/18 08:08:07;;;;;;;23.73;14.60;;;;;;;;;;4938391;28;20258;-87
2021/03/18 08:10:33;;;;;;;29.07;19.47;;;;;;;;;;4957870;28;20191;-87
2021/03/18 08:12:59;;;;;;;27.50;17.97;;;;;;;;;;4974782;28;20564;-87
2021/03/18 08:15:25;;;;;;;25.50;16.27;;;;;;;;;;4975098;28;20170;-87
2021/03/18 08:17:51;;;;;;;35.23;26.10;;;;;;;;;;4970007;28;20195;-88
2021/03/18 08:20:35;;;;;;;52.43;30.53;;;;;;;;;;4955660;29;20167;-86
2021/03/18 08:23:20;;;;;;;27.67;17.70;;;;;;;;;;4965310;28;20170;-87
2021/03/18 08:25:46;;;;;;;36.17;22.40;;;;;;;;;;4974572;28;20170;-87
2021/03/18 08:28:30;;;;;;;39.37;25.07;;;;;;;;;;4974906;28;20178;-86
2021/03/18 08:30:55;;;;;;;37.00;21.63;;;;;;;;;;4948409;29;20246;-87
2021/03/18 08:33:33;;;;;;;29.03;18.70;;;;;;;;;;4938563;29;20261;-87
2021/03/18 08:36:22;;;;;;;46.80;29.87;;;;;;;;;;4961333;28;20207;-87
2021/03/18 08:39:13;;;;;;;30.47;20.63;;;;;;;;;;4949198;28;20186;-88
2021/03/18 08:41:38;;;;;;;30.17;20.33;;;;;;;;;;4949960;28;20190;-87
2021/03/18 08:44:12;;;;;;;34.10;24.00;;;;;;;;;;4943501;28;20189;-86
2021/03/18 08:46:53;;;;;;;65.60;34.93;;;;;;;;;;4962154;28;20198;-87
2021/03/18 08:49:18;;;;;;;48.03;26.03;;;;;;;;;;4960444;28;20175;-86
2021/03/18 08:51:44;;;;;;;36.00;21.33;;;;;;;;;;4965219;28;20213;-86
2021/03/18 08:54:09;;;;;;;33.97;23.20;;;;;;;;;;4963972;28;20170;-86
2021/03/18 08:56:42;;;;;;;29.60;19.23;;;;;;;;;;4943648;28;20263;-86
2021/03/18 08:59:10;;;;;;;25.63;17.30;;;;;;;;;;4961525;28;20314;-86
2021/03/18 09:01:35;;;;;;;31.90;20.27;;;;;;;;;;4972559;28;20179;-86
2021/03/18 09:04:00;;;;;;;45.60;24.23;;;;;;;;;;4958820;28;20179;-87
2021/03/18 09:06:27;;;;;;;33.27;19.97;;;;;;;;;;4938717;29;20558;-87
2021/03/18 09:08:52;;;;;;;31.03;18.43;;;;;;;;;;4963459;28;20299;-87
2021/03/18 09:11:24;;;;;;;34.60;20.20;;;;;;;;;;4945071;28;20214;-87
2021/03/18 09:13:50;;;;;;;39.30;20.53;;;;;;;;;;4951175;28;20183;-88
2021/03/18 09:16:20;;;;;;;36.43;20.50;;;;;;;;;;4952812;28;20266;-86
2021/03/18 09:18:46;;;;;;;24.70;17.27;;;;;;;;;;4962923;28;20210;-87
2021/03/18 09:21:12;;;;;;;39.17;28.90;;;;;;;;;;4959513;28;20860;-85
2021/03/18 09:23:42;;;;;;;52.17;26.63;;;;;;;;;;4957378;29;20526;-86
2021/03/18 09:26:09;;;;;;;30.37;17.73;;;;;;;;;;4952308;28;20261;-87
2021/03/18 09:28:38;;;;;;;23.13;16.03;;;;;;;;;;4963026;28;20183;-86
2021/03/18 09:31:04;;;;;;;23.43;15.47;;;;;;;;;;4956917;28;20206;-86
2021/03/18 09:33:32;;;;;;;19.37;13.90;;;;;;;;;;4964471;28;20185;-86
2021/03/18 09:35:59;;;;;;;16.83;13.00;;;;;;;;;;4971854;28;20217;-86
2021/03/18 09:38:26;;;;;;;16.30;12.73;;;;;;;;;;4967525;28;20172;-86
2021/03/18 09:40:54;;;;;;;25.37;17.27;;;;;;;;;;4973102;28;20646;-86
2021/03/18 09:43:20;;;;;;;18.47;13.80;;;;;;;;;;4962654;28;20167;-85
2021/03/18 09:45:53;;;;;;;16.93;13.23;;;;;;;;;;4966465;28;20192;-87
2021/03/18 09:48:26;;;;;;;19.67;13.83;;;;;;;;;;4963930;28;20226;-85
2021/03/18 09:50:53;;;;;;;19.40;12.67;;;;;;;;;;4957436;28;20198;-86
2021/03/18 09:53:19;;;;;;;13.63;11.53;;;;;;;;;;4972335;28;20171;-88
2021/03/18 09:55:44;;;;;;;24.33;13.80;;;;;;;;;;4966765;28;20179;-87
2021/03/18 09:58:11;;;;;;;19.07;11.73;;;;;;;;;;4965049;28;20262;-86
2021/03/18 10:00:36;;;;;;;14.40;10.77;;;;;;;;;;4973262;28;20690;-86
2021/03/18 10:03:02;;;;;;;14.47;11.57;;;;;;;;;;4960792;28;20179;-85
2021/03/18 10:05:27;;;;;;;13.90;10.07;;;;;;;;;;4970812;28;20172;-86
2021/03/18 10:07:56;;;;;;;9.83;7.83;;;;;;;;;;4965564;28;20171;-86
2021/03/18 10:10:23;;;;;;;10.23;8.23;;;;;;;;;;4970886;28;20559;-87
2021/03/18 10:12:48;;;;;;;7.47;5.80;;;;;;;;;;4961037;28;20218;-86
2021/03/18 10:15:15;;;;;;;6.20;5.47;;;;;;;;;;4972699;28;20171;-86
2021/03/18 10:17:42;;;;;;;6.50;5.90;;;;;;;;;;4957977;28;20172;-86
2021/03/18 10:20:10;;;;;;;7.40;6.57;;;;;;;;;;4968580;28;20651;-86
2021/03/18 10:22:38;;;;;;;13.27;9.40;;;;;;;;;;4961759;28;20234;-86
2021/03/18 10:25:05;;;;;;;11.80;8.77;;;;;;;;;;4973454;28;20178;-87
2021/03/18 10:27:32;;;;;;;11.40;9.70;;;;;;;;;;4963746;28;20503;-88
2021/03/18 10:30:03;;;;;;;8.90;7.47;;;;;;;;;;4966927;28;20179;-85
2021/03/18 10:32:28;;;;;;;10.20;8.83;;;;;;;;;;4975186;28;20257;-86
2021/03/18 10:34:54;;;;;;;11.23;9.07;;;;;;;;;;4971276;28;20170;-86
2021/03/18 10:37:33;;;;;;;8.90;7.40;;;;;;;;;;4972398;28;20167;-85
2021/03/18 10:40:14;;;;;;;19.23;13.73;;;;;;;;;;4959348;28;20180;-85
2021/03/18 10:42:39;;;;;;;22.63;11.10;;;;;;;;;;4966952;28;20261;-85
2021/03/18 10:45:23;;;;;;;37.47;20.07;;;;;;;;;;4958398;28;20258;-86
2021/03/18 10:47:50;;;;;;;81.87;51.63;;;;;;;;;;4965978;28;20175;-86
2021/03/18 10:50:16;;;;;;;12.43;8.60;;;;;;;;;;4967165;28;20168;-87
2021/03/18 10:52:50;;;;;;;14.90;9.60;;;;;;;;;;4962613;28;20207;-87
2021/03/18 10:55:20;;;;;;;15.53;8.97;;;;;;;;;;4963668;28;20607;-86
2021/03/18 10:57:52;;;;;;;15.63;10.57;;;;;;;;;;4966488;28;20669;-86
2021/03/18 11:00:19;;;;;;;15.37;9.37;;;;;;;;;;4961426;28;20205;-86
2021/03/18 11:02:55;;;;;;;13.30;9.60;;;;;;;;;;4950353;28;20650;-86
2021/03/18 11:05:26;;;;;;;23.57;11.43;;;;;;;;;;4944546;29;20652;-86
2021/03/18 11:07:55;;;;;;;15.30;8.90;;;;;;;;;;4962452;28;20223;-86
2021/03/18 11:10:20;;;;;;;12.90;8.33;;;;;;;;;;4967147;28;20175;-86
2021/03/18 11:12:55;;;;;;;12.40;9.40;;;;;;;;;;4959702;28;20710;-86
2021/03/18 11:15:22;;;;;;;13.40;8.20;;;;;;;;;;4958771;28;20617;-85
2021/03/18 11:18:02;;;;;;;10.43;6.50;;;;;;;;;;4948593;28;20242;-85
2021/03/18 11:20:32;;;;;;;15.63;10.80;;;;;;;;;;4949216;28;20181;-85
2021/03/18 11:22:59;;;;;;;34.33;22.57;;;;;;;;;;4961179;28;20178;-86
2021/03/18 11:25:24;;;;;;;20.13;13.07;;;;;;;;;;4963175;28;20176;-85
2021/03/18 11:27:50;;;;;;;21.73;13.83;;;;;;;;;;4965531;28;20190;-85
2021/03/18 11:30:25;;;;;;;21.93;14.23;;;;;;;;;;4967255;28;20202;-86
2021/03/18 11:33:05;;;;;;;19.57;13.47;;;;;;;;;;4973269;28;20202;-86
2021/03/18 11:35:30;;;;;;;16.80;11.53;;;;;;;;;;4968161;28;20258;-86
2021/03/18 11:37:56;;;;;;;12.40;8.13;;;;;;;;;;4954853;29;20271;-88
2021/03/18 11:40:21;;;;;;;18.67;12.73;;;;;;;;;;4964854;28;20529;-88
2021/03/18 11:42:46;;;;;;;16.00;8.97;;;;;;;;;;4956816;28;20179;-90
2021/03/18 11:45:12;;;;;;;11.57;7.13;;;;;;;;;;4941082;28;20617;-88
2021/03/18 11:47:37;;;;;;;13.70;7.83;;;;;;;;;;4950377;29;20183;-87
2021/03/18 11:50:03;;;;;;;15.10;7.83;;;;;;;;;;4964846;28;20575;-86
2021/03/18 11:52:31;;;;;;;15.40;7.47;;;;;;;;;;4959059;28;20344;-86
2021/03/18 11:54:57;;;;;;;6.87;4.70;;;;;;;;;;4969659;28;20178;-87
2021/03/18 11:57:22;;;;;;;19.73;12.23;;;;;;;;;;4956901;28;20217;-86
2021/03/18 11:59:47;;;;;;;7.27;5.40;;;;;;;;;;4964106;28;20262;-86
2021/03/18 12:02:12;;;;;;;6.77;5.10;;;;;;;;;;4953973;28;20202;-86
2021/03/18 12:04:38;;;;;;;8.90;5.93;;;;;;;;;;4966795;28;20182;-86
2021/03/18 12:07:03;;;;;;;5.60;4.07;;;;;;;;;;4955319;28;20233;-86
2021/03/18 12:09:28;;;;;;;9.00;5.80;;;;;;;;;;4950764;28;20172;-86
2021/03/18 12:11:54;;;;;;;8.47;6.00;;;;;;;;;;4964894;28;20210;-86
2021/03/18 12:14:19;;;;;;;7.30;5.70;;;;;;;;;;4962193;28;20182;-85
2021/03/18 12:16:44;;;;;;;5.17;4.57;;;;;;;;;;4971118;28;20645;-85
2021/03/18 12:19:10;;;;;;;9.33;7.17;;;;;;;;;;4959226;28;20177;-85
2021/03/18 12:21:36;;;;;;;43.07;29.43;;;;;;;;;;4951301;28;20606;-85
2021/03/18 12:24:01;;;;;;;33.43;16.10;;;;;;;;;;4959487;28;20189;-85
2021/03/18 12:26:27;;;;;;;13.87;7.10;;;;;;;;;;4971920;28;20213;-84
2021/03/18 12:28:55;;;;;;;9.03;6.27;;;;;;;;;;4958470;28;20171;-85
2021/03/18 12:31:20;;;;;;;9.20;5.83;;;;;;;;;;4969264;28;20604;-86
2021/03/18 12:33:45;;;;;;;15.47;9.33;;;;;;;;;;4963909;28;20173;-85
2021/03/18 12:36:11;;;;;;;19.10;11.70;;;;;;;;;;4968617;28;20744;-85
2021/03/18 12:38:36;;;;;;;10.87;7.10;;;;;;;;;;4971375;28;20178;-85
2021/03/18 12:41:01;;;;;;;5.50;5.00;;;;;;;;;;4965702;28;20573;-85
2021/03/18 12:43:27;;;;;;;15.10;8.87;;;;;;;;;;4968570;28;20641;-85
2021/03/18 12:45:52;;;;;;;8.23;7.20;;;;;;;;;;4964231;28;20178;-86
2021/03/18 12:48:18;;;;;;;57.73;39.83;;;;;;;;;;4964046;28;20179;-85
2021/03/18 12:50:43;;;;;;;22.47;10.77;;;;;;;;;;4967405;28;20624;-85
2021/03/18 12:53:09;;;;;;;5.20;4.43;;;;;;;;;;4968901;28;20629;-87
2021/03/18 12:55:35;;;;;;;12.10;7.33;;;;;;;;;;4960635;28;20214;-87
2021/03/18 12:58:01;;;;;;;11.17;6.37;;;;;;;;;;4974076;28;20231;-87
2021/03/18 13:00:28;;;;;;;27.93;10.57;;;;;;;;;;4966348;28;20313;-86
2021/03/18 13:02:53;;;;;;;11.80;6.83;;;;;;;;;;4966344;28;20186;-87
2021/03/18 13:05:19;;;;;;;12.67;7.40;;;;;;;;;;4956421;28;20178;-86
2021/03/18 13:07:44;;;;;;;13.40;8.10;;;;;;;;;;4964703;28;20214;-86
2021/03/18 13:10:10;;;;;;;12.27;7.27;;;;;;;;;;4969930;28;20245;-86
2021/03/18 13:12:36;;;;;;;16.37;10.77;;;;;;;;;;4968534;28;20269;-84
2021/03/18 13:15:01;;;;;;;10.40;8.27;;;;;;;;;;4970574;28;20174;-84
2021/03/18 13:17:27;;;;;;;10.47;6.87;;;;;;;;;;4977273;28;20596;-83
2021/03/18 13:19:52;;;;;;;12.00;8.70;;;;;;;;;;4962741;28;20182;-84
2021/03/18 13:22:17;;;;;;;17.57;10.47;;;;;;;;;;4971474;28;20179;-85
2021/03/18 13:24:43;;;;;;;7.53;6.20;;;;;;;;;;4968541;28;20183;-85
2021/03/18 13:27:08;;;;;;;13.00;7.70;;;;;;;;;;4964360;28;20179;-85
2021/03/18 13:29:33;;;;;;;12.70;7.20;;;;;;;;;;4974245;28;20564;-85
2021/03/18 13:31:59;;;;;;;13.03;8.27;;;;;;;;;;4970246;28;20210;-85
2021/03/18 13:34:24;;;;;;;7.13;5.63;;;;;;;;;;4974325;28;20186;-85
2021/03/18 13:36:50;;;;;;;8.20;7.40;;;;;;;;;;4959328;28;20176;-85
2021/03/18 13:39:16;;;;;;;8.53;5.50;;;;;;;;;;4976743;28;20182;-85
2021/03/18 13:41:41;;;;;;;6.23;4.40;;;;;;;;;;4977336;28;20186;-85
2021/03/18 13:44:06;;;;;;;5.33;4.77;;;;;;;;;;4977397;28;20233;-86
2021/03/18 13:46:32;;;;;;;9.50;6.67;;;;;;;;;;4971381;28;20223;-85
2021/03/18 13:48:57;;;;;;;7.13;6.43;;;;;;;;;;4971914;28;20207;-84
2021/03/18 13:51:22;;;;;;;10.23;8.77;;;;;;;;;;4977224;28;20699;-85
2021/03/18 13:53:48;;;;;;;7.37;6.67;;;;;;;;;;4977212;28;20575;-85
2021/03/18 13:56:17;;;;;;;6.93;5.23;;;;;;;;;;4975477;28;20601;-85
2021/03/18 13:58:42;;;;;;;12.83;6.67;;;;;;;;;;4958310;28;20249;-86
2021/03/18 14:01:11;;;;;;;25.20;10.27;;;;;;;;;;4977200;28;20178;-85
2021/03/18 14:03:37;;;;;;;7.63;6.27;;;;;;;;;;4977297;28;20204;-85
2021/03/18 14:06:03;;;;;;;8.20;6.37;;;;;;;;;;4976463;28;20229;-85
2021/03/18 14:08:28;;;;;;;8.57;6.43;;;;;;;;;;4977031;28;20621;-86
2021/03/18 14:10:54;;;;;;;6.07;5.27;;;;;;;;;;4976313;28;20667;-84
2021/03/18 14:13:19;;;;;;;12.27;8.07;;;;;;;;;;4977073;28;20260;-85
2021/03/18 14:15:46;;;;;;;8.47;6.50;;;;;;;;;;4976766;28;20171;-83
2021/03/18 14:18:12;;;;;;;6.00;5.40;;;;;;;;;;4976845;28;20184;-84
2021/03/18 14:20:39;;;;;;;9.20;5.93;;;;;;;;;;4959582;28;20182;-84
2021/03/18 14:23:05;;;;;;;9.67;5.87;;;;;;;;;;4977255;28;20182;-85
2021/03/18 14:25:30;;;;;;;12.63;8.77;;;;;;;;;;4976834;28;20179;-84
2021/03/18 14:27:56;;;;;;;13.43;6.90;;;;;;;;;;4976508;28;20221;-83